createdAt,value
2015-12-25T00:00:30.239Z,10.5
2015-12-25T00:01:30.178Z,10.6
2015-12-25T00:02:30.135Z,10.6
2015-12-25T00:03:30.075Z,10.6
2015-12-25T00:04:30.030Z,10.6
2015-12-25T00:05:29.971Z,10.6
2015-12-25T00:06:29.928Z,10.7
2015-12-25T00:07:29.867Z,10.7
2015-12-25T00:08:29.839Z,10.7
2015-12-25T00:09:29.763Z,10.8
2015-12-25T00:10:29.703Z,10.8
2015-12-25T00:11:29.660Z,10.8
2015-12-25T00:12:29.616Z,10.8
2015-12-25T00:13:29.556Z,10.9
2015-12-25T00:14:29.497Z,10.9
2015-12-25T00:15:29.451Z,11
2015-12-25T00:16:29.391Z,11
2015-12-25T00:17:29.347Z,11
2015-12-25T00:18:29.288Z,10.9
2015-12-25T00:19:29.244Z,10.9
2015-12-25T00:20:29.185Z,10.9
2015-12-25T00:21:29.140Z,10.9
2015-12-25T00:22:29.080Z,11
2015-12-25T00:23:29.036Z,11.1
2015-12-25T00:24:28.976Z,11.1
2015-12-25T00:25:28.932Z,11.1
2015-12-25T00:26:28.872Z,11.1
2015-12-25T00:27:28.829Z,11.2
2015-12-25T00:28:28.768Z,11.2
2015-12-25T00:29:28.724Z,11.2
2015-12-25T00:30:28.665Z,11.2
2015-12-25T00:31:28.605Z,11.2
2015-12-25T00:32:28.560Z,11.3
2015-12-25T00:33:28.506Z,11.3
2015-12-25T00:34:28.446Z,11.3
2015-12-25T00:35:28.401Z,11.3
2015-12-25T00:36:28.343Z,11.3
2015-12-25T00:37:28.298Z,11.3
2015-12-25T00:38:28.238Z,11.3
2015-12-25T00:39:28.179Z,11.3
2015-12-25T00:40:28.134Z,11.4
2015-12-25T00:41:28.090Z,11.3
2015-12-25T00:42:28.031Z,11.4
2015-12-25T00:43:27.968Z,11.3
2015-12-25T00:44:27.923Z,11.3
2015-12-25T00:45:27.865Z,11.3
2015-12-25T00:46:27.836Z,11.3
2015-12-25T00:47:27.760Z,11.3
2015-12-25T00:48:27.716Z,11.3
2015-12-25T00:49:27.673Z,11.3
2015-12-25T00:50:27.612Z,11.2
2015-12-25T00:51:27.553Z,11.2
2015-12-25T00:52:27.493Z,11.2
2015-12-25T00:53:27.448Z,11.2
2015-12-25T00:54:27.389Z,11.2
2015-12-25T00:55:27.345Z,11.2
2015-12-25T00:56:27.301Z,11.2
2015-12-25T00:57:27.242Z,11.3
2015-12-25T00:58:27.181Z,11.3
2015-12-25T00:59:27.137Z,11.3
2015-12-25T01:00:27.077Z,11.3
2015-12-25T01:01:27.017Z,11.3
2015-12-25T01:02:26.973Z,11.3
2015-12-25T01:03:26.929Z,11.3
2015-12-25T01:04:26.870Z,11.3
2015-12-25T01:05:26.809Z,11.2
2015-12-25T01:06:26.766Z,11.2
2015-12-25T01:07:26.721Z,11.2
2015-12-25T01:08:26.661Z,11.3
2015-12-25T01:09:26.602Z,11.3
2015-12-25T01:10:26.558Z,11.3
2015-12-25T01:11:26.498Z,11.3
2015-12-25T01:12:26.453Z,11.3
2015-12-25T01:13:26.394Z,11.3
2015-12-25T01:14:26.349Z,11.3
2015-12-25T01:15:26.291Z,11.3
2015-12-25T01:16:26.247Z,11.4
2015-12-25T01:17:26.186Z,11.4
2015-12-25T01:18:26.126Z,11.4
2015-12-25T01:19:26.083Z,11.4
2015-12-25T01:20:26.038Z,11.4
2015-12-25T01:21:25.978Z,11.4
2015-12-25T01:22:25.919Z,11.4
2015-12-25T01:23:25.875Z,11.4
2015-12-25T01:24:25.816Z,11.4
2015-12-25T01:25:25.772Z,11.5
2015-12-25T01:26:25.711Z,11.5
2015-12-25T01:27:25.664Z,11.5
2015-12-25T01:28:25.605Z,11.5
2015-12-25T01:29:25.561Z,11.6
2015-12-25T01:30:25.500Z,11.5
2015-12-25T01:31:25.441Z,11.4
2015-12-25T01:32:25.396Z,11.1
2015-12-25T01:33:25.338Z,11
2015-12-25T01:34:25.293Z,10.8
2015-12-25T01:35:25.233Z,10.6
2015-12-25T01:36:25.252Z,10.3
2015-12-25T01:37:25.130Z,10.2
2015-12-25T01:38:25.069Z,10.1
2015-12-25T01:39:25.010Z,10
2015-12-25T01:40:24.950Z,9.9
2015-12-25T01:41:24.906Z,9.9
2015-12-25T01:42:24.846Z,9.8
2015-12-25T01:43:24.786Z,9.7
2015-12-25T01:44:24.743Z,9.7
2015-12-25T01:45:24.699Z,9.6
2015-12-25T01:46:24.624Z,9.6
2015-12-25T01:47:24.579Z,9.5
2015-12-25T01:48:24.519Z,9.4
2015-12-25T01:49:24.459Z,9.4
2015-12-25T01:50:24.415Z,9.4
2015-12-25T01:51:24.355Z,9.4
2015-12-25T01:52:24.295Z,9.3
2015-12-25T01:53:24.252Z,9.3
2015-12-25T01:54:24.191Z,9.3
2015-12-25T01:55:24.132Z,9.3
2015-12-25T01:56:24.088Z,9.3
2015-12-25T01:57:24.029Z,9.2
2015-12-25T01:58:23.968Z,9.2
2015-12-25T01:59:23.909Z,9.2
2015-12-25T02:00:23.864Z,9.2
2015-12-25T02:01:23.804Z,9.2
2015-12-25T02:02:23.750Z,9.2
2015-12-25T02:03:23.705Z,9.2
2015-12-25T02:04:23.645Z,9.2
2015-12-25T02:05:23.587Z,9.1
2015-12-25T02:06:23.573Z,9.1
2015-12-25T02:07:23.482Z,9
2015-12-25T02:08:23.423Z,9.2
2015-12-25T02:09:23.356Z,9.2
2015-12-25T02:10:23.299Z,9.2
2015-12-25T02:11:23.233Z,9.1
2015-12-25T02:12:23.161Z,9.1
2015-12-25T02:13:23.105Z,9.2
2015-12-25T02:14:23.039Z,9.3
2015-12-25T02:15:22.975Z,9.3
2015-12-25T02:16:22.927Z,9.2
2015-12-25T02:17:22.864Z,9.2
2015-12-25T02:18:22.801Z,9.2
2015-12-25T02:19:22.752Z,9.1
2015-12-25T02:20:22.690Z,9.1
2015-12-25T02:21:22.629Z,9.1
2015-12-25T02:22:22.583Z,9.2
2015-12-25T02:23:22.521Z,9.2
2015-12-25T02:24:22.476Z,9.1
2015-12-25T02:25:22.415Z,9.1
2015-12-25T02:26:22.354Z,9.1
2015-12-25T02:27:22.294Z,9.2
2015-12-25T02:28:22.249Z,9.1
2015-12-25T02:29:22.189Z,9
2015-12-25T02:30:22.129Z,9
2015-12-25T02:31:22.085Z,9.1
2015-12-25T02:32:22.026Z,9.1
2015-12-25T02:33:21.965Z,9.2
2015-12-25T02:34:21.920Z,9.1
2015-12-25T02:35:21.876Z,9.1
2015-12-25T02:36:21.817Z,9
2015-12-25T02:37:21.789Z,9
2015-12-25T02:38:21.697Z,8.9
2015-12-25T02:39:21.654Z,8.9
2015-12-25T02:40:21.594Z,8.8
2015-12-25T02:41:21.533Z,8.9
2015-12-25T02:42:21.489Z,8.8
2015-12-25T02:43:21.430Z,8.8
2015-12-25T02:44:21.370Z,8.7
2015-12-25T02:45:21.310Z,8.8
2015-12-25T02:46:21.266Z,8.8
2015-12-25T02:47:21.206Z,8.8
2015-12-25T02:48:21.162Z,8.8
2015-12-25T02:49:21.102Z,8.9
2015-12-25T02:50:21.041Z,8.9
2015-12-25T02:51:20.982Z,8.9
2015-12-25T02:52:20.938Z,8.9
2015-12-25T02:53:21.285Z,8.9
2015-12-25T02:54:20.819Z,9
2015-12-25T02:55:20.774Z,9
2015-12-25T02:56:20.716Z,9.1
2015-12-25T02:57:20.655Z,9.1
2015-12-25T02:58:20.611Z,9.1
2015-12-25T02:59:20.552Z,9.2
2015-12-25T03:00:20.508Z,9.1
2015-12-25T03:01:20.447Z,9.2
2015-12-25T03:02:20.403Z,9.2
2015-12-25T03:03:20.343Z,9.1
2015-12-25T03:04:20.284Z,9
2015-12-25T03:05:20.224Z,9
2015-12-25T03:06:20.179Z,9
2015-12-25T03:07:20.120Z,9
2015-12-25T03:08:20.076Z,9.1
2015-12-25T03:09:20.015Z,9.1
2015-12-25T03:10:19.957Z,9
2015-12-25T03:11:19.928Z,9
2015-12-25T03:12:19.852Z,9.1
2015-12-25T03:13:19.793Z,9.1
2015-12-25T03:14:19.749Z,9
2015-12-25T03:15:19.689Z,9.1
2015-12-25T03:16:19.645Z,9
2015-12-25T03:17:19.585Z,9
2015-12-25T03:18:19.525Z,9
2015-12-25T03:19:19.465Z,9.1
2015-12-25T03:20:19.421Z,9.1
2015-12-25T03:21:19.362Z,9.1
2015-12-25T03:22:19.317Z,9
2015-12-25T03:23:19.254Z,9
2015-12-25T03:24:19.195Z,9
2015-12-25T03:25:19.151Z,9
2015-12-25T03:26:19.091Z,9
2015-12-25T03:27:19.031Z,9
2015-12-25T03:28:18.987Z,9
2015-12-25T03:29:18.928Z,9
2015-12-25T03:30:18.883Z,9
2015-12-25T03:31:18.824Z,9
2015-12-25T03:32:18.764Z,8.9
2015-12-25T03:33:18.720Z,9
2015-12-25T03:34:18.660Z,9
2015-12-25T03:35:18.601Z,9
2015-12-25T03:36:18.573Z,9
2015-12-25T03:37:18.497Z,9
2015-12-25T03:38:18.437Z,9
2015-12-25T03:39:18.392Z,9
2015-12-25T03:40:18.333Z,9
2015-12-25T03:41:18.289Z,9
2015-12-25T03:42:18.228Z,9.1
2015-12-25T03:43:18.170Z,9
2015-12-25T03:44:18.125Z,9.1
2015-12-25T03:45:18.065Z,9.1
2015-12-25T03:46:18.022Z,9.1
2015-12-25T03:47:17.962Z,9.1
2015-12-25T03:48:17.933Z,9.1
2015-12-25T03:49:17.858Z,9
2015-12-25T03:50:17.798Z,9
2015-12-25T03:51:17.739Z,9
2015-12-25T03:52:17.694Z,9
2015-12-25T03:53:17.650Z,9
2015-12-25T03:54:17.590Z,9
2015-12-25T03:55:17.530Z,9
2015-12-25T03:56:17.486Z,9
2015-12-25T03:57:17.426Z,9
2015-12-25T03:58:17.383Z,9
2015-12-25T03:59:17.322Z,9
2015-12-25T04:00:17.263Z,9
2015-12-25T04:01:17.203Z,9
2015-12-25T04:02:17.158Z,8.9
2015-12-25T04:03:17.099Z,8.9
2015-12-25T04:04:17.055Z,8.9
2015-12-25T04:05:16.994Z,8.8
2015-12-25T04:06:16.935Z,8.9
2015-12-25T04:07:17.094Z,8.8
2015-12-25T04:08:16.831Z,8.9
2015-12-25T04:09:16.772Z,8.8
2015-12-25T04:10:16.727Z,8.8
2015-12-25T04:11:16.668Z,8.9
2015-12-25T04:12:16.605Z,8.9
2015-12-25T04:13:16.561Z,8.9
2015-12-25T04:14:16.501Z,8.9
2015-12-25T04:15:16.441Z,8.8
2015-12-25T04:16:16.397Z,8.8
2015-12-25T04:17:16.338Z,8.8
2015-12-25T04:18:16.293Z,8.8
2015-12-25T04:19:16.234Z,8.8
2015-12-25T04:20:16.174Z,8.7
2015-12-25T04:21:16.130Z,8.7
2015-12-25T04:22:16.071Z,8.7
2015-12-25T04:23:16.026Z,8.7
2015-12-25T04:24:15.966Z,8.7
2015-12-25T04:25:15.907Z,8.7
2015-12-25T04:26:15.862Z,8.7
2015-12-25T04:27:15.802Z,8.6
2015-12-25T04:28:15.743Z,8.6
2015-12-25T04:29:15.683Z,8.6
2015-12-25T04:30:15.640Z,8.6
2015-12-25T04:31:15.579Z,8.6
2015-12-25T04:32:15.520Z,8.6
2015-12-25T04:33:15.460Z,8.6
2015-12-25T04:34:15.415Z,8.6
2015-12-25T04:35:15.356Z,8.6
2015-12-25T04:36:15.295Z,8.5
2015-12-25T04:37:15.252Z,8.5
2015-12-25T04:38:15.239Z,8.5
2015-12-25T04:39:15.132Z,8.5
2015-12-25T04:40:15.088Z,8.5
2015-12-25T04:41:15.028Z,8.5
2015-12-25T04:42:14.968Z,8.4
2015-12-25T04:43:14.909Z,8.5
2015-12-25T04:44:14.865Z,8.5
2015-12-25T04:45:14.806Z,8.5
2015-12-25T04:46:14.761Z,8.4
2015-12-25T04:47:14.701Z,8.4
2015-12-25T04:48:14.642Z,8.4
2015-12-25T04:49:14.582Z,8.4
2015-12-25T04:50:14.537Z,8.4
2015-12-25T04:51:14.478Z,8.4
2015-12-25T04:52:14.418Z,8.4
2015-12-25T04:53:14.358Z,8.4
2015-12-25T04:54:14.315Z,8.4
2015-12-25T04:55:14.254Z,8.4
2015-12-25T04:56:14.194Z,8.4
2015-12-25T04:57:14.134Z,8.4
2015-12-25T04:58:14.091Z,8.4
2015-12-25T04:59:14.028Z,8.4
2015-12-25T05:00:13.984Z,8.4
2015-12-25T05:01:13.925Z,8.3
2015-12-25T05:02:13.881Z,8.4
2015-12-25T05:03:13.820Z,8.4
2015-12-25T05:04:13.761Z,8.4
2015-12-25T05:05:13.716Z,8.3
2015-12-25T05:06:13.656Z,8.3
2015-12-25T05:07:13.613Z,8.4
2015-12-25T05:08:13.552Z,8.4
2015-12-25T05:09:13.494Z,8.4
2015-12-25T05:10:13.433Z,8.4
2015-12-25T05:11:13.389Z,8.4
2015-12-25T05:12:13.329Z,8.4
2015-12-25T05:13:13.269Z,8.4
2015-12-25T05:14:13.225Z,8.4
2015-12-25T05:15:13.166Z,8.4
2015-12-25T05:16:13.105Z,8.3
2015-12-25T05:17:13.062Z,8.2
2015-12-25T05:18:13.002Z,8.2
2015-12-25T05:19:12.958Z,8.1
2015-12-25T05:20:12.914Z,8.1
2015-12-25T05:21:12.838Z,8.1
2015-12-25T05:22:12.794Z,8.2
2015-12-25T05:23:12.735Z,8.2
2015-12-25T05:24:12.690Z,8.1
2015-12-25T05:25:12.630Z,8.1
2015-12-25T05:26:12.572Z,8.2
2015-12-25T05:27:12.511Z,8.2
2015-12-25T05:28:12.467Z,8.2
2015-12-25T05:29:12.407Z,8.1
2015-12-25T05:30:12.347Z,8.1
2015-12-25T05:31:12.303Z,8.1
2015-12-25T05:32:12.244Z,8.1
2015-12-25T05:33:12.184Z,8.2
2015-12-25T05:34:12.140Z,8.2
2015-12-25T05:35:12.079Z,8.2
2015-12-25T05:36:12.035Z,8.2
2015-12-25T05:37:11.977Z,8.2
2015-12-25T05:38:11.916Z,8
2015-12-25T05:39:11.872Z,8
2015-12-25T05:40:11.813Z,8.1
2015-12-25T05:41:11.752Z,8
2015-12-25T05:42:11.693Z,8
2015-12-25T05:43:11.648Z,7.9
2015-12-25T05:44:11.590Z,7.8
2015-12-25T05:45:11.529Z,7.8
2015-12-25T05:46:11.470Z,7.8
2015-12-25T05:47:11.457Z,7.8
2015-12-25T05:48:11.394Z,7.7
2015-12-25T05:49:11.304Z,7.7
2015-12-25T05:50:11.243Z,7.8
2015-12-25T05:51:11.199Z,7.8
2015-12-25T05:52:11.139Z,7.8
2015-12-25T05:53:11.096Z,7.8
2015-12-25T05:54:11.036Z,7.8
2015-12-25T05:55:10.976Z,7.7
2015-12-25T05:56:10.915Z,7.7
2015-12-25T05:57:10.873Z,7.8
2015-12-25T05:58:10.812Z,7.9
2015-12-25T05:59:10.754Z,7.8
2015-12-25T06:00:10.709Z,7.9
2015-12-25T06:01:10.649Z,7.9
2015-12-25T06:02:10.604Z,7.9
2015-12-25T06:03:10.545Z,7.9
2015-12-25T06:04:10.485Z,7.8
2015-12-25T06:05:10.440Z,7.7
2015-12-25T06:06:10.382Z,7.7
2015-12-25T06:07:10.321Z,7.7
2015-12-25T06:08:10.278Z,7.8
2015-12-25T06:09:10.218Z,7.8
2015-12-25T06:10:10.159Z,7.8
2015-12-25T06:11:10.114Z,7.7
2015-12-25T06:12:10.054Z,7.7
2015-12-25T06:13:09.995Z,7.7
2015-12-25T06:14:09.934Z,7.6
2015-12-25T06:15:09.890Z,7.6
2015-12-25T06:16:09.831Z,7.6
2015-12-25T06:17:09.786Z,7.6
2015-12-25T06:18:09.726Z,7.6
2015-12-25T06:19:09.667Z,7.6
2015-12-25T06:20:09.623Z,7.5
2015-12-25T06:21:09.564Z,7.5
2015-12-25T06:22:09.504Z,7.5
2015-12-25T06:23:09.475Z,7.5
2015-12-25T06:24:09.384Z,7.5
2015-12-25T06:25:09.370Z,7.5
2015-12-25T06:26:09.389Z,7.5
2015-12-25T06:27:09.220Z,7.5
2015-12-25T06:28:09.175Z,7.5
2015-12-25T06:29:09.226Z,7.6
2015-12-25T06:30:09.056Z,7.6
2015-12-25T06:31:08.997Z,7.6
2015-12-25T06:32:08.953Z,7.6
2015-12-25T06:33:08.893Z,7.6
2015-12-25T06:34:08.847Z,7.5
2015-12-25T06:35:08.786Z,7.6
2015-12-25T06:36:08.726Z,7.6
2015-12-25T06:37:08.682Z,7.6
2015-12-25T06:38:08.622Z,7.6
2015-12-25T06:39:08.562Z,7.6
2015-12-25T06:40:08.519Z,7.6
2015-12-25T06:41:08.459Z,7.6
2015-12-25T06:42:08.414Z,7.6
2015-12-25T06:43:08.355Z,7.6
2015-12-25T06:44:08.294Z,7.6
2015-12-25T06:45:08.235Z,7.5
2015-12-25T06:46:08.191Z,7.6
2015-12-25T06:47:08.132Z,7.5
2015-12-25T06:48:08.072Z,7.6
2015-12-25T06:49:08.027Z,7.5
2015-12-25T06:50:08.234Z,7.5
2015-12-25T06:51:07.908Z,7.5
2015-12-25T06:52:07.864Z,7.5
2015-12-25T06:53:07.819Z,7.4
2015-12-25T06:54:07.807Z,7.4
2015-12-25T06:55:07.700Z,7.4
2015-12-25T06:56:07.640Z,7.3
2015-12-25T06:57:07.596Z,7.3
2015-12-25T06:58:07.537Z,7.3
2015-12-25T06:59:07.493Z,7.3
2015-12-25T07:00:07.417Z,7.3
2015-12-25T07:01:07.373Z,7.3
2015-12-25T07:02:07.313Z,7.3
2015-12-25T07:03:07.269Z,7.2
2015-12-25T07:04:07.210Z,7.2
2015-12-25T07:05:07.196Z,7.1
2015-12-25T07:06:07.121Z,7.1
2015-12-25T07:07:07.045Z,7.2
2015-12-25T07:08:06.986Z,7.2
2015-12-25T07:09:06.943Z,7.2
2015-12-25T07:10:06.882Z,7.2
2015-12-25T07:11:06.823Z,7.2
2015-12-25T07:12:06.778Z,7.2
2015-12-25T07:13:06.718Z,7.2
2015-12-25T07:14:06.689Z,7.2
2015-12-25T07:15:06.676Z,7.2
2015-12-25T07:16:06.601Z,7.1
2015-12-25T07:17:06.526Z,7.1
2015-12-25T07:18:06.435Z,7.1
2015-12-25T07:19:06.391Z,7.1
2015-12-25T07:20:06.331Z,6.9
2015-12-25T07:21:06.287Z,6.9
2015-12-25T07:22:06.228Z,6.9
2015-12-25T07:23:06.168Z,6.9
2015-12-25T07:24:06.106Z,6.8
2015-12-25T07:25:06.061Z,6.6
2015-12-25T07:26:06.001Z,6.7
2015-12-25T07:27:05.941Z,6.6
2015-12-25T07:28:05.928Z,6.6
2015-12-25T07:29:05.837Z,6.7
2015-12-25T07:30:05.778Z,6.7
2015-12-25T07:31:05.734Z,6.8
2015-12-25T07:32:05.674Z,6.8
2015-12-25T07:33:05.631Z,6.9
2015-12-25T07:34:05.570Z,7
2015-12-25T07:35:05.511Z,6.8
2015-12-25T07:36:05.451Z,6.8
2015-12-25T07:37:05.406Z,6.7
2015-12-25T07:38:05.409Z,6.6
2015-12-25T07:39:05.303Z,6.7
2015-12-25T07:40:05.243Z,6.7
2015-12-25T07:41:05.184Z,6.7
2015-12-25T07:42:05.127Z,6.7
2015-12-25T07:43:05.084Z,6.8
2015-12-25T07:44:05.024Z,6.7
2015-12-25T07:45:04.964Z,6.8
2015-12-25T07:46:04.904Z,6.9
2015-12-25T07:47:04.891Z,6.9
2015-12-25T07:48:04.800Z,6.9
2015-12-25T07:49:04.757Z,7
2015-12-25T07:50:04.696Z,7
2015-12-25T07:51:04.637Z,7
2015-12-25T07:52:04.593Z,6.9
2015-12-25T07:53:04.533Z,7
2015-12-25T07:54:04.489Z,7
2015-12-25T07:55:04.429Z,7.1
2015-12-25T07:56:04.368Z,7.1
2015-12-25T07:57:04.309Z,7.1
2015-12-25T07:58:04.265Z,7.2
2015-12-25T07:59:04.268Z,7.1
2015-12-25T08:00:04.223Z,7.2
2015-12-25T08:01:04.102Z,7.2
2015-12-25T08:02:04.043Z,7.2
2015-12-25T08:03:03.998Z,7.2
2015-12-25T08:04:03.954Z,7.2
2015-12-25T08:05:03.938Z,7.2
2015-12-25T08:06:03.816Z,7.2
2015-12-25T08:07:03.756Z,7.2
2015-12-25T08:08:03.774Z,7.1
2015-12-25T08:09:03.667Z,7
2015-12-25T08:10:03.607Z,7
2015-12-25T08:11:03.595Z,6.9
2015-12-25T08:12:03.504Z,7
2015-12-25T08:13:03.444Z,7.1
2015-12-25T08:14:03.384Z,7.1
2015-12-25T08:15:03.326Z,7
2015-12-25T08:16:03.281Z,7
2015-12-25T08:17:03.221Z,6.9
2015-12-25T08:18:03.162Z,7
2015-12-25T08:19:03.117Z,7.1
2015-12-25T08:20:03.057Z,7.1
2015-12-25T08:21:02.998Z,7.2
2015-12-25T08:22:02.938Z,7.2
2015-12-25T08:23:02.893Z,7.2
2015-12-25T08:24:02.834Z,7.1
2015-12-25T08:25:02.774Z,7.1
2015-12-25T08:26:02.730Z,7.1
2015-12-25T08:27:02.670Z,7.1
2015-12-25T08:28:02.611Z,7.2
2015-12-25T08:29:02.582Z,7.2
2015-12-25T08:30:02.506Z,7.2
2015-12-25T08:31:02.447Z,7.2
2015-12-25T08:32:02.403Z,7.2
2015-12-25T08:33:02.358Z,7.2
2015-12-25T08:34:02.298Z,7.3
2015-12-25T08:35:02.239Z,7.3
2015-12-25T08:36:02.179Z,7.3
2015-12-25T08:37:02.120Z,7.3
2015-12-25T08:38:02.075Z,7.4
2015-12-25T08:39:02.016Z,7.5
2015-12-25T08:40:01.956Z,7.8
2015-12-25T08:41:01.912Z,8
2015-12-25T08:42:01.852Z,8.5
2015-12-25T08:43:01.792Z,8.9
2015-12-25T08:44:01.747Z,9.2
2015-12-25T08:45:01.689Z,9.5
2015-12-25T08:46:01.628Z,9.6
2015-12-25T08:47:01.584Z,9.8
2015-12-25T08:48:01.525Z,9.9
2015-12-25T08:49:01.621Z,10.1
2015-12-25T08:50:01.421Z,10.1
2015-12-25T08:51:01.377Z,10.2
2015-12-25T08:52:01.332Z,10.1
2015-12-25T08:53:01.272Z,9.9
2015-12-25T08:54:01.213Z,10.1
2015-12-25T08:55:01.166Z,10.3
2015-12-25T08:56:01.152Z,10.4
2015-12-25T08:57:01.063Z,10.5
2015-12-25T08:58:01.018Z,10.6
2015-12-25T08:59:00.957Z,10.9
2015-12-25T09:00:00.898Z,11.1
2015-12-25T09:01:00.854Z,11.5
2015-12-25T09:02:00.794Z,11.5
2015-12-25T09:03:00.750Z,11.7
2015-12-25T09:04:00.737Z,11.7
2015-12-25T09:05:00.646Z,11.4
2015-12-25T09:06:00.587Z,10.9
2015-12-25T09:07:00.543Z,10.6
2015-12-25T09:08:00.498Z,10.2
2015-12-25T09:09:00.470Z,10
2015-12-25T09:10:00.379Z,9.8
2015-12-25T09:11:00.335Z,9.6
2015-12-25T09:12:00.275Z,9.5
2015-12-25T09:13:00.232Z,9.9
2015-12-25T09:14:00.171Z,10.8
2015-12-25T09:15:00.191Z,11.1
2015-12-25T09:16:00.068Z,11.5
2015-12-25T09:17:00.023Z,11.8
2015-12-25T09:18:00.010Z,12
2015-12-25T09:18:59.919Z,12.4
2015-12-25T09:19:59.875Z,13.1
2015-12-25T09:20:59.815Z,13.5
2015-12-25T09:21:59.771Z,12.9
2015-12-25T09:22:59.727Z,12.8
2015-12-25T09:23:59.667Z,12.8
2015-12-25T09:24:59.624Z,12.2
2015-12-25T09:25:59.563Z,11.5
2015-12-25T09:26:59.504Z,11.4
2015-12-25T09:27:59.522Z,11.7
2015-12-25T09:28:59.415Z,12.3
2015-12-25T09:29:59.356Z,13.2
2015-12-25T09:30:59.296Z,13.5
2015-12-25T09:31:59.251Z,14.1
2015-12-25T09:32:59.255Z,14.4
2015-12-25T09:33:59.164Z,14.6
2015-12-25T09:34:59.104Z,14.5
2015-12-25T09:35:59.059Z,14.8
2015-12-25T09:36:59.000Z,14.9
2015-12-25T09:37:58.955Z,15.3
2015-12-25T09:38:58.912Z,15.7
2015-12-25T09:39:58.867Z,15.8
2015-12-25T09:40:58.823Z,15.1
2015-12-25T09:41:58.779Z,15.2
2015-12-25T09:42:58.720Z,15.4
2015-12-25T09:43:58.675Z,15
2015-12-25T09:44:58.612Z,14.1
2015-12-25T09:45:58.569Z,13.6
2015-12-25T09:46:58.525Z,13.2
2015-12-25T09:47:58.825Z,12.8
2015-12-25T09:48:58.608Z,12.4
2015-12-25T09:49:58.361Z,12.5
2015-12-25T09:50:58.316Z,12.4
2015-12-25T09:51:58.256Z,12.2
2015-12-25T09:52:58.213Z,12.4
2015-12-25T09:53:58.153Z,12.2
2015-12-25T09:54:58.109Z,11.7
2015-12-25T09:55:58.050Z,11
2015-12-25T09:56:58.005Z,10.9
2015-12-25T09:57:57.945Z,10.4
2015-12-25T09:58:57.886Z,10.3
2015-12-25T09:59:57.841Z,10
2015-12-25T10:00:57.797Z,10
2015-12-25T10:01:57.738Z,9.9
2015-12-25T10:02:57.678Z,9.9
2015-12-25T10:03:57.634Z,9.8
2015-12-25T10:04:57.574Z,9.8
2015-12-25T10:05:57.530Z,9.6
2015-12-25T10:06:57.469Z,9.7
2015-12-25T10:07:57.425Z,9.7
2015-12-25T10:08:57.444Z,9.8
2015-12-25T10:09:57.760Z,9.6
2015-12-25T10:10:57.263Z,9.5
2015-12-25T10:11:57.202Z,9.6
2015-12-25T10:12:57.143Z,9.6
2015-12-25T10:13:57.099Z,9.6
2015-12-25T10:14:57.039Z,9.5
2015-12-25T10:15:56.994Z,9.5
2015-12-25T10:16:56.935Z,9.4
2015-12-25T10:17:56.891Z,9.5
2015-12-25T10:18:56.831Z,9.5
2015-12-25T10:19:56.771Z,9.6
2015-12-25T10:20:56.727Z,9.6
2015-12-25T10:21:56.668Z,9.6
2015-12-25T10:22:56.607Z,9.6
2015-12-25T10:23:56.548Z,9.6
2015-12-25T10:24:56.551Z,9.9
2015-12-25T10:25:56.443Z,10.4
2015-12-25T10:26:56.384Z,10.5
2015-12-25T10:27:56.340Z,10.2
2015-12-25T10:28:56.280Z,10
2015-12-25T10:29:56.235Z,10.3
2015-12-25T10:30:56.176Z,11.3
2015-12-25T10:31:56.148Z,12.4
2015-12-25T10:32:56.073Z,12.9
2015-12-25T10:33:56.028Z,13.6
2015-12-25T10:34:55.978Z,14.8
2015-12-25T10:35:55.918Z,14.5
2015-12-25T10:36:55.874Z,14.2
2015-12-25T10:37:55.811Z,12.7
2015-12-25T10:38:55.768Z,11.6
2015-12-25T10:39:55.709Z,11.1
2015-12-25T10:40:55.664Z,10.7
2015-12-25T10:41:55.603Z,10.8
2015-12-25T10:42:55.559Z,11
2015-12-25T10:43:55.500Z,11.7
2015-12-25T10:44:55.456Z,12.2
2015-12-25T10:45:55.397Z,13
2015-12-25T10:46:55.353Z,13.1
2015-12-25T10:47:55.292Z,13.6
2015-12-25T10:48:55.247Z,13.5
2015-12-25T10:49:55.189Z,12.6
2015-12-25T10:50:55.161Z,11.4
2015-12-25T10:51:55.100Z,11.1
2015-12-25T10:52:55.041Z,11
2015-12-25T10:53:54.981Z,11.1
2015-12-25T10:54:54.936Z,11
2015-12-25T10:55:54.877Z,11
2015-12-25T10:56:54.817Z,10.7
2015-12-25T10:57:54.773Z,10.9
2015-12-25T10:58:54.714Z,11
2015-12-25T10:59:54.669Z,10.8
2015-12-25T11:00:54.609Z,10.8
2015-12-25T11:01:54.566Z,11.2
2015-12-25T11:02:54.505Z,11.6
2015-12-25T11:03:54.461Z,12.2
2015-12-25T11:04:54.402Z,13.5
2015-12-25T11:05:54.357Z,14.3
2015-12-25T11:06:54.344Z,14.9
2015-12-25T11:07:54.269Z,14.3
2015-12-25T11:08:54.210Z,13.7
2015-12-25T11:09:54.165Z,13.1
2015-12-25T11:10:54.105Z,12.5
2015-12-25T11:11:54.061Z,11.7
2015-12-25T11:12:54.002Z,11.4
2015-12-25T11:13:53.942Z,11.3
2015-12-25T11:14:53.897Z,11.2
2015-12-25T11:15:53.842Z,11.2
2015-12-25T11:16:53.769Z,11
2015-12-25T11:17:53.696Z,11
2015-12-25T11:18:53.639Z,10.9
2015-12-25T11:19:53.582Z,10.6
2015-12-25T11:20:53.517Z,10.4
2015-12-25T11:21:53.453Z,10.3
2015-12-25T11:22:53.405Z,10.3
2015-12-25T11:23:53.342Z,10.4
2015-12-25T11:24:53.277Z,10.3
2015-12-25T11:25:53.229Z,10.2
2015-12-25T11:26:53.184Z,10.1
2015-12-25T11:27:53.123Z,10.1
2015-12-25T11:28:53.076Z,10.1
2015-12-25T11:29:53.014Z,10
2015-12-25T11:30:52.969Z,10.1
2015-12-25T11:31:52.909Z,10.1
2015-12-25T11:32:52.848Z,10
2015-12-25T11:33:52.804Z,10
2015-12-25T11:34:52.743Z,10.1
2015-12-25T11:35:52.698Z,9.9
2015-12-25T11:36:52.638Z,10
2015-12-25T11:37:52.578Z,10
2015-12-25T11:38:52.533Z,9.9
2015-12-25T11:39:52.474Z,9.9
2015-12-25T11:40:52.414Z,9.9
2015-12-25T11:41:52.401Z,9.8
2015-12-25T11:42:52.310Z,9.8
2015-12-25T11:43:52.265Z,9.9
2015-12-25T11:44:52.206Z,9.9
2015-12-25T11:45:52.146Z,10
2015-12-25T11:46:52.102Z,10
2015-12-25T11:47:52.043Z,10
2015-12-25T11:48:51.982Z,10
2015-12-25T11:49:51.938Z,10
2015-12-25T11:50:51.879Z,9.9
2015-12-25T11:51:51.835Z,9.9
2015-12-25T11:52:51.774Z,10
2015-12-25T11:53:51.715Z,10
2015-12-25T11:54:51.671Z,9.9
2015-12-25T11:55:51.612Z,10
2015-12-25T11:56:51.551Z,10
2015-12-25T11:57:51.507Z,10.1
2015-12-25T11:58:51.462Z,10.1
2015-12-25T11:59:51.403Z,10.1
2015-12-25T12:00:51.343Z,10.1
2015-12-25T12:01:51.298Z,10
2015-12-25T12:02:51.239Z,10
2015-12-25T12:03:51.195Z,10
2015-12-25T12:04:51.136Z,10
2015-12-25T12:05:51.076Z,10.1
2015-12-25T12:06:51.031Z,10.2
2015-12-25T12:07:50.969Z,10.1
2015-12-25T12:08:50.925Z,10.2
2015-12-25T12:09:50.865Z,10.2
2015-12-25T12:10:50.822Z,10.1
2015-12-25T12:11:50.761Z,10.1
2015-12-25T12:12:50.702Z,10
2015-12-25T12:13:50.658Z,9.9
2015-12-25T12:14:50.595Z,9.9
2015-12-25T12:15:50.536Z,9.9
2015-12-25T12:16:50.507Z,9.9
2015-12-25T12:17:50.431Z,9.9
2015-12-25T12:18:50.387Z,9.9
2015-12-25T12:19:50.328Z,10
2015-12-25T12:20:50.283Z,10.1
2015-12-25T12:21:50.225Z,10
2015-12-25T12:22:50.164Z,9.9
2015-12-25T12:23:50.105Z,9.9
2015-12-25T12:24:50.061Z,9.9
2015-12-25T12:25:50.000Z,9.9
2015-12-25T12:26:49.956Z,9.9
2015-12-25T12:27:49.897Z,9.9
2015-12-25T12:28:49.852Z,10
2015-12-25T12:29:49.792Z,10
2015-12-25T12:30:49.734Z,9.9
2015-12-25T12:31:49.689Z,10
2015-12-25T12:32:49.630Z,9.9
2015-12-25T12:33:49.570Z,9.9
2015-12-25T12:34:49.525Z,9.9
2015-12-25T12:35:49.497Z,9.9
2015-12-25T12:36:49.422Z,9.9
2015-12-25T12:37:49.361Z,9.9
2015-12-25T12:38:49.303Z,9.8
2015-12-25T12:39:49.258Z,9.8
2015-12-25T12:40:49.198Z,9.8
2015-12-25T12:41:49.139Z,9.8
2015-12-25T12:42:49.094Z,9.8
2015-12-25T12:43:49.035Z,9.9
2015-12-25T12:44:48.991Z,9.8
2015-12-25T12:45:48.930Z,9.8
2015-12-25T12:46:48.871Z,9.9
2015-12-25T12:47:48.841Z,9.8
2015-12-25T12:48:48.767Z,9.8
2015-12-25T12:49:48.707Z,9.8
2015-12-25T12:50:48.663Z,9.8
2015-12-25T12:51:48.603Z,9.8
2015-12-25T12:52:48.559Z,9.8
2015-12-25T12:53:48.498Z,9.8
2015-12-25T12:54:48.439Z,9.7
2015-12-25T12:55:48.396Z,9.7
2015-12-25T12:56:48.335Z,9.7
2015-12-25T12:57:48.276Z,9.8
2015-12-25T12:58:48.215Z,9.8
2015-12-25T12:59:48.171Z,9.8
2015-12-25T13:00:48.112Z,9.8
2015-12-25T13:01:48.068Z,9.8
2015-12-25T13:02:48.007Z,9.8
2015-12-25T13:03:47.964Z,9.7
2015-12-25T13:04:47.903Z,9.9
2015-12-25T13:05:47.844Z,9.9
2015-12-25T13:06:47.800Z,9.8
2015-12-25T13:07:47.739Z,9.8
2015-12-25T13:08:47.712Z,9.8
2015-12-25T13:09:47.636Z,9.9
2015-12-25T13:10:47.576Z,9.8
2015-12-25T13:11:47.531Z,9.8
2015-12-25T13:12:47.472Z,9.8
2015-12-25T13:13:47.428Z,9.9
2015-12-25T13:14:47.368Z,9.8
2015-12-25T13:15:47.324Z,9.8
2015-12-25T13:16:47.264Z,9.9
2015-12-25T13:17:47.267Z,9.9
2015-12-25T13:18:47.161Z,9.9
2015-12-25T13:19:47.116Z,10
2015-12-25T13:20:47.056Z,10
2015-12-25T13:21:46.996Z,10
2015-12-25T13:22:46.952Z,10
2015-12-25T13:23:46.892Z,10
2015-12-25T13:24:46.849Z,10
2015-12-25T13:25:46.788Z,10
2015-12-25T13:26:46.744Z,10
2015-12-25T13:27:46.684Z,10
2015-12-25T13:28:46.640Z,10
2015-12-25T13:29:46.580Z,10.1
2015-12-25T13:30:46.521Z,10
2015-12-25T13:31:46.476Z,10
2015-12-25T13:32:46.448Z,10
2015-12-25T13:33:46.373Z,9.9
2015-12-25T13:34:46.312Z,9.9
2015-12-25T13:35:46.269Z,10
2015-12-25T13:36:46.209Z,9.9
2015-12-25T13:37:46.149Z,10
2015-12-25T13:38:46.105Z,10
2015-12-25T13:39:46.059Z,10
2015-12-25T13:40:45.999Z,10.1
2015-12-25T13:41:45.954Z,10
2015-12-25T13:42:45.894Z,10
2015-12-25T13:43:45.834Z,9.9
2015-12-25T13:44:45.790Z,10